Time;durP1;ratioP1;P1;durP2;ratioP2;P2;SDS_P1;SDS_P2;PMS_P1;PMS_P2;Temp;Humidity;BMP_temperature;BMP_pressure;BME280_temperature;BME280_humidity;BME280_pressure;Samples;Min_cycle;Max_cycle;Signal;HPM_P1;HPM_P2
2022/04/20 00:00:44;;;;;;;28.75;15.70;;;;;;;1.73;76.18;99244.84;8463688;27;20520;-75
2022/04/20 00:04:45;;;;;;;36.05;17.02;;;;;;;1.63;76.66;99247.38;8512355;27;20436;-76
2022/04/20 00:08:46;;;;;;;38.20;18.55;;;;;;;1.53;76.79;99256.03;8512884;27;20366;-75
2022/04/20 00:12:47;;;;;;;42.45;18.50;;;;;;;1.46;76.85;99243.97;8481778;27;20045;-76
2022/04/20 00:16:48;;;;;;;36.97;18.75;;;;;;;1.40;76.96;99244.94;8473865;27;20099;-76
2022/04/20 00:20:49;;;;;;;39.08;19.98;;;;;;;1.31;76.84;99252.53;8515391;27;20046;-76
2022/04/20 00:24:50;;;;;;;42.47;20.40;;;;;;;1.24;76.89;99252.72;8520869;27;20062;-76
2022/04/20 00:28:51;;;;;;;41.97;20.10;;;;;;;1.13;77.72;99245.63;8518210;27;20055;-76
2022/04/20 00:32:52;;;;;;;37.53;18.90;;;;;;;1.05;77.90;99232.75;8515283;27;20503;-75
2022/04/20 00:36:55;;;;;;;37.85;18.75;;;;;;;1.03;78.17;99234.84;8513835;27;20138;-75
2022/04/20 00:40:56;;;;;;;35.40;19.70;;;;;;;1.11;77.29;99226.44;8522519;27;20496;-76
2022/04/20 00:44:57;;;;;;;39.63;19.63;;;;;;;1.22;77.53;99233.50;8512421;27;20043;-75
2022/04/20 00:48:58;;;;;;;40.90;20.63;;;;;;;1.38;77.40;99225.72;8502696;27;20298;-76
2022/04/20 00:52:59;;;;;;;41.60;21.48;;;;;;;1.52;77.19;99232.31;8495665;27;20532;-75
2022/04/20 00:57:00;;;;;;;41.83;21.25;;;;;;;1.57;77.24;99224.41;8515464;27;20034;-75
2022/04/20 01:01:01;;;;;;;40.38;20.92;;;;;;;1.67;76.96;99219.22;8474977;27;20137;-76
2022/04/20 01:05:03;;;;;;;40.55;20.63;;;;;;;1.71;77.09;99225.63;8521808;27;20038;-75
2022/04/20 01:09:04;;;;;;;40.10;20.30;;;;;;;1.70;77.45;99226.69;8473602;27;20046;-75
2022/04/20 01:13:05;;;;;;;37.95;20.27;;;;;;;1.74;77.33;99229.69;8495568;27;20130;-75
2022/04/20 01:17:06;;;;;;;43.80;20.88;;;;;;;1.82;77.52;99224.72;8495331;27;20404;-76
2022/04/20 01:21:07;;;;;;;45.45;22.23;;;;;;;1.90;77.37;99218.97;8512141;27;20038;-76
2022/04/20 01:25:09;;;;;;;49.28;22.15;;;;;;;2.01;77.30;99219.88;8460550;27;20058;-76
2022/04/20 01:29:10;;;;;;;45.33;22.88;;;;;;;2.08;77.37;99215.94;8518746;27;20042;-75
2022/04/20 01:33:11;;;;;;;43.15;21.60;;;;;;;2.10;77.16;99203.19;8512507;27;20050;-76
2022/04/20 01:37:12;;;;;;;44.95;23.70;;;;;;;2.04;78.49;99209.50;8520614;27;20115;-76
2022/04/20 01:41:14;;;;;;;44.60;22.17;;;;;;;2.17;77.78;99207.53;8469407;27;20047;-76
2022/04/20 01:45:15;;;;;;;46.35;21.65;;;;;;;2.27;77.51;99212.94;8515839;27;20031;-75
2022/04/20 01:49:16;;;;;;;43.63;21.50;;;;;;;2.36;77.10;99211.44;8516284;27;20567;-76
2022/04/20 01:53:17;;;;;;;43.25;20.90;;;;;;;2.37;77.33;99197.84;8513409;27;20073;-76
2022/04/20 01:57:18;;;;;;;42.13;20.80;;;;;;;2.42;76.99;99202.41;8515149;27;20600;-75
2022/04/20 02:05:38;;;;;;;;;;;;;;;2.46;76.98;99195.53;8515678;27;20038;-76
2022/04/20 02:09:39;;;;;;;42.08;20.48;;;;;;;2.45;76.59;99193.91;8519243;27;20030;-76
2022/04/20 02:13:40;;;;;;;44.08;21.00;;;;;;;2.52;76.41;99191.84;8515804;27;20066;-75
2022/04/20 02:17:41;;;;;;;49.03;22.83;;;;;;;2.53;76.35;99196.13;8501368;27;20043;-76
2022/04/20 02:21:42;;;;;;;49.47;22.42;;;;;;;2.55;76.22;99188.66;8517397;27;20043;-76
2022/04/20 02:25:43;;;;;;;47.95;21.60;;;;;;;2.57;76.01;99191.88;8461298;27;20108;-76
2022/04/20 02:29:44;;;;;;;46.47;21.90;;;;;;;2.59;75.71;99189.78;8509990;27;20140;-76
2022/04/20 02:33:45;;;;;;;45.55;21.15;;;;;;;2.63;75.42;99190.88;8512317;27;20036;-75
2022/04/20 02:37:46;;;;;;;45.45;21.45;;;;;;;2.59;75.42;99186.31;8474138;27;20054;-76
2022/04/20 02:41:47;;;;;;;43.83;21.35;;;;;;;2.55;76.14;99184.13;8515197;27;20043;-76
2022/04/20 02:45:48;;;;;;;49.30;22.38;;;;;;;2.58;75.62;99193.50;8510698;27;20051;-76
2022/04/20 02:49:49;;;;;;;46.83;22.75;;;;;;;2.65;75.40;99183.41;8515133;27;20089;-76
2022/04/20 02:53:50;;;;;;;50.65;23.15;;;;;;;2.70;75.36;99170.09;8505814;27;20664;-77
2022/04/20 02:57:51;;;;;;;47.22;21.90;;;;;;;2.74;75.73;99176.56;8519278;27;20062;-75
2022/04/20 03:01:53;;;;;;;47.95;22.50;;;;;;;2.77;75.73;99176.03;8516768;27;20103;-76
2022/04/20 03:05:54;;;;;;;49.33;23.15;;;;;;;2.74;75.97;99171.22;8472986;27;20122;-75
2022/04/20 03:09:55;;;;;;;45.20;22.30;;;;;;;2.74;76.10;99173.91;8518094;27;20038;-75
2022/04/20 03:13:57;;;;;;;46.17;22.05;;;;;;;2.73;76.11;99174.94;8513315;27;20084;-76
2022/04/20 03:17:57;;;;;;;43.60;22.33;;;;;;;2.73;75.83;99179.47;8504165;27;20058;-76
2022/04/20 03:21:59;;;;;;;48.28;22.27;;;;;;;2.75;75.33;99178.16;8509344;27;20072;-75
2022/04/20 03:26:00;;;;;;;49.08;21.85;;;;;;;2.79;75.44;99184.59;8506580;27;20561;-76
2022/04/20 03:30:01;;;;;;;49.38;21.65;;;;;;;2.83;75.37;99175.00;8513883;27;20039;-76
2022/04/20 03:34:02;;;;;;;49.33;21.95;;;;;;;2.83;75.50;99180.34;8503909;27;20047;-76
2022/04/20 03:38:03;;;;;;;46.55;21.45;;;;;;;2.80;75.44;99170.19;8488001;27;20087;-76
2022/04/20 03:42:04;;;;;;;41.83;20.42;;;;;;;2.85;75.34;99164.91;8510177;27;20043;-76
2022/04/20 03:46:06;;;;;;;43.05;20.63;;;;;;;2.83;75.53;99163.53;8508419;27;20047;-76
2022/04/20 03:50:07;;;;;;;47.08;22.35;;;;;;;2.85;75.35;99159.56;8471505;27;20041;-76
2022/04/20 03:54:08;;;;;;;43.65;21.38;;;;;;;2.89;75.58;99152.66;8482843;27;20054;-76
2022/04/20 03:58:09;;;;;;;44.90;22.17;;;;;;;2.90;75.28;99154.28;8524664;27;20130;-76
2022/04/20 04:02:10;;;;;;;45.03;21.05;;;;;;;2.88;75.35;99156.38;8507160;27;20046;-76
2022/04/20 04:06:11;;;;;;;49.08;21.55;;;;;;;2.92;75.38;99157.47;8523172;27;20062;-76
2022/04/20 04:10:12;;;;;;;45.13;21.00;;;;;;;2.93;75.60;99159.06;8547622;27;20075;-76
2022/04/20 04:14:13;;;;;;;47.15;21.92;;;;;;;2.96;75.36;99163.88;8567850;27;20039;-76
2022/04/20 04:18:14;;;;;;;46.50;22.13;;;;;;;3.04;75.38;99164.47;8569386;27;20125;-76
2022/04/20 04:22:15;;;;;;;42.70;21.27;;;;;;;3.09;75.00;99162.63;8520347;27;20058;-76
2022/04/20 04:26:16;;;;;;;42.60;21.00;;;;;;;3.09;75.12;99167.16;8475457;27;20047;-75
2022/04/20 04:30:18;;;;;;;40.22;20.52;;;;;;;3.09;75.58;99159.16;8539046;27;20548;-75
2022/04/20 04:34:19;;;;;;;42.85;19.98;;;;;;;3.17;75.55;99153.34;8504605;27;20129;-76
2022/04/20 04:38:20;;;;;;;39.53;19.70;;;;;;;3.18;75.20;99160.28;8506626;27;20459;-75
2022/04/20 04:42:21;;;;;;;38.00;18.58;;;;;;;3.24;75.23;99159.25;8511084;27;20039;-76
2022/04/20 04:50:41;;;;;;;42.40;19.75;;;;;;;3.36;74.70;99157.16;8532376;27;20126;-76
2022/04/20 04:54:42;;;;;;;37.47;19.38;;;;;;;3.42;74.70;99145.47;8517851;27;20503;-76
2022/04/20 04:58:43;;;;;;;40.28;20.38;;;;;;;3.50;74.47;99152.13;8523796;27;20046;-75
2022/04/20 05:02:44;;;;;;;36.63;19.38;;;;;;;3.57;74.41;99148.19;8519364;27;20156;-75
2022/04/20 05:06:45;;;;;;;39.22;20.25;;;;;;;3.65;73.93;99155.66;8512997;27;20463;-76
2022/04/20 05:10:46;;;;;;;37.38;19.08;;;;;;;3.71;74.05;99143.94;8472470;27;20157;-76
2022/04/20 05:14:47;;;;;;;38.63;18.77;;;;;;;3.80;73.62;99142.38;8531569;27;20095;-76
2022/04/20 05:18:47;;;;;;;42.53;19.50;;;;;;;3.89;73.33;99144.53;8528693;27;20179;-76
2022/04/20 05:22:49;;;;;;;42.38;18.65;;;;;;;3.97;73.46;99142.13;8521800;27;20049;-76
2022/04/20 05:26:50;;;;;;;32.50;18.40;;;;;;;4.03;73.22;99130.38;8519136;27;20059;-76
2022/04/20 05:30:51;;;;;;;36.38;18.58;;;;;;;4.12;73.00;99122.66;8507029;27;20050;-76
2022/04/20 05:34:52;;;;;;;36.00;17.10;;;;;;;4.23;72.52;99129.59;8474460;27;20046;-76
2022/04/20 05:43:12;;;;;;;31.35;16.60;;;;;;;4.48;71.64;99116.25;8437704;27;20088;-76
2022/04/20 05:47:13;;;;;;;32.25;17.08;;;;;;;4.58;71.15;99121.59;8492029;27;20045;-76
2022/04/20 05:51:14;;;;;;;37.13;15.57;;;;;;;4.67;70.48;99114.63;8521140;27;20502;-76
2022/04/20 05:55:15;;;;;;;33.67;16.77;;;;;;;4.80;70.64;99112.47;8503221;27;20039;-76
2022/04/20 05:59:16;;;;;;;30.35;15.13;;;;;;;4.91;69.42;99108.69;8503155;27;20030;-75
2022/04/20 06:03:17;;;;;;;26.52;14.55;;;;;;;4.93;69.39;99107.34;8525300;27;20045;-76
2022/04/20 06:07:18;;;;;;;31.75;14.80;;;;;;;4.96;68.63;99111.38;8526937;27;20416;-76
2022/04/20 06:11:19;;;;;;;28.27;14.20;;;;;;;5.08;68.46;99109.97;8505926;27;20054;-76
2022/04/20 06:15:20;;;;;;;29.52;15.32;;;;;;;5.15;67.96;99098.97;8500236;27;20043;-76
2022/04/20 06:19:21;;;;;;;28.02;15.30;;;;;;;5.24;67.85;99102.69;8523272;27;20043;-76
2022/04/20 06:23:22;;;;;;;29.50;15.38;;;;;;;5.28;68.03;99102.97;8539513;27;20045;-76
2022/04/20 06:27:30;;;;;;;30.45;15.05;;;;;;;5.33;67.64;99101.06;8564511;27;20046;-76
2022/04/20 06:31:31;;;;;;;26.80;14.60;;;;;;;5.36;67.70;99111.22;8562626;27;20487;-76
2022/04/20 06:35:32;;;;;;;30.65;15.45;;;;;;;5.39;67.26;99099.16;8508300;27;20106;-76
2022/04/20 06:39:33;;;;;;;27.23;15.05;;;;;;;5.41;67.15;99095.13;8477066;27;20051;-75
2022/04/20 06:43:35;;;;;;;29.65;14.45;;;;;;;5.44;66.99;99089.22;8495316;27;20042;-76
2022/04/20 06:47:36;;;;;;;26.60;14.85;;;;;;;5.51;67.09;99087.03;8505804;27;20041;-76
2022/04/20 07:00:17;;;;;;;33.78;15.85;;;;;;;5.67;66.54;99085.06;8530039;27;20042;-76
2022/04/20 07:04:18;;;;;;;32.33;15.95;;;;;;;5.66;67.03;99082.69;8509233;27;20488;-76
2022/04/20 07:08:19;;;;;;;29.58;14.88;;;;;;;5.69;67.23;99084.81;8561500;27;20050;-76
2022/04/20 07:12:20;;;;;;;30.42;16.23;;;;;;;5.73;66.74;99077.81;8563371;27;20098;-76
2022/04/20 07:16:21;;;;;;;32.20;15.38;;;;;;;5.79;67.06;99087.41;8563143;27;20132;-75
2022/04/20 07:20:22;;;;;;;31.63;15.63;;;;;;;5.77;66.77;99078.84;8563092;27;20069;-76
2022/04/20 07:24:23;;;;;;;31.92;15.50;;;;;;;5.76;66.95;99075.38;8561388;27;20046;-76
2022/04/20 07:28:24;;;;;;;27.23;14.45;;;;;;;5.78;67.14;99075.09;8562879;27;20399;-76
2022/04/20 07:32:25;;;;;;;31.70;15.50;;;;;;;5.72;67.52;99076.19;8566298;27;20083;-76
2022/04/20 07:36:26;;;;;;;27.65;15.93;;;;;;;5.78;67.99;99080.47;8538922;27;20043;-76
2022/04/20 07:40:27;;;;;;;28.88;15.48;;;;;;;5.78;69.93;99077.78;8535246;27;20163;-76
2022/04/20 07:44:28;;;;;;;35.67;17.13;;;;;;;5.80;70.81;99078.31;8535767;27;20053;-75
2022/04/20 07:48:29;;;;;;;32.33;18.00;;;;;;;5.84;71.63;99068.63;8536376;27;20121;-75
2022/04/20 07:52:30;;;;;;;35.42;18.05;;;;;;;5.90;72.54;99072.91;8535253;27;20054;-76
2022/04/20 07:56:31;;;;;;;36.15;18.27;;;;;;;5.94;72.76;99068.59;8531610;27;20042;-76
2022/04/20 08:00:31;;;;;;;30.75;18.45;;;;;;;6.01;73.17;99061.03;8498939;27;20126;-76
2022/04/20 08:04:33;;;;;;;33.10;17.85;;;;;;;6.08;73.42;99069.53;8536027;27;20057;-76
2022/04/20 08:08:33;;;;;;;37.58;18.30;;;;;;;5.97;74.28;99073.41;8497526;27;20444;-75
2022/04/20 08:12:40;;;;;;;33.15;19.05;;;;;;;6.02;74.95;99070.69;8464626;27;20055;-76
2022/04/20 08:16:41;;;;;;;34.67;18.90;;;;;;;6.08;75.58;99063.41;8499727;27;20066;-76
2022/04/20 08:20:42;;;;;;;34.42;19.75;;;;;;;6.15;76.18;99064.66;8498245;27;20047;-76
2022/04/20 08:24:45;;;;;;;38.28;20.67;;;;;;;6.21;76.82;99052.81;8499030;27;20080;-76
2022/04/20 08:28:47;;;;;;;40.50;19.65;;;;;;;6.27;78.11;99049.03;8506861;27;20064;-76
2022/04/20 08:32:48;;;;;;;34.72;20.17;;;;;;;6.18;79.01;99053.41;8542929;27;20046;-76
2022/04/20 08:36:49;;;;;;;37.25;20.35;;;;;;;6.24;79.95;99046.09;8533295;27;20051;-79
2022/04/20 08:40:53;;;;;;;38.92;20.70;;;;;;;6.24;80.31;99046.88;8533298;27;20130;-76
2022/04/20 08:44:56;;;;;;;39.05;19.23;;;;;;;6.22;81.13;99043.72;8496087;27;20038;-76
2022/04/20 08:48:57;;;;;;;39.08;19.92;;;;;;;6.25;82.47;99032.41;8532879;27;20058;-77
2022/04/20 08:52:58;;;;;;;36.17;18.77;;;;;;;6.35;83.22;99037.69;8533002;27;20397;-76
2022/04/20 08:57:19;;;;;;;38.88;19.83;;;;;;;6.32;83.69;99032.88;8502365;27;20134;-76
2022/04/20 09:01:20;;;;;;;35.80;19.95;;;;;;;6.42;83.57;99031.19;8494351;27;20046;-78
2022/04/20 09:05:23;;;;;;;39.35;21.08;;;;;;;6.43;83.62;99027.44;8531400;27;20481;-76
2022/04/20 09:09:29;;;;;;;33.55;19.98;;;;;;;6.50;84.34;99017.16;8531981;27;20051;-76
2022/04/20 09:13:35;;;;;;;36.70;19.80;;;;;;;6.66;84.22;99015.94;8480926;27;20047;-76
2022/04/20 09:17:42;;;;;;;30.83;18.52;;;;;;;6.54;85.16;99007.47;8532196;27;20058;-76
2022/04/20 09:21:43;;;;;;;34.63;19.88;;;;;;;6.66;85.31;99005.19;8495349;27;20039;-76
2022/04/20 09:25:51;;;;;;;28.90;18.30;;;;;;;6.65;85.22;98998.22;8531810;27;20125;-76
2022/04/20 09:29:54;;;;;;;32.55;18.10;;;;;;;6.63;85.76;98989.66;8531800;27;20050;-76
2022/04/20 09:33:56;;;;;;;29.13;17.38;;;;;;;6.54;86.63;98989.47;8530082;27;20047;-76
2022/04/20 09:38:05;;;;;;;36.88;24.98;;;;;;;6.45;86.81;98982.34;8532482;27;20145;-76
2022/04/20 09:42:09;;;;;;;26.23;16.13;;;;;;;6.46;87.44;98978.56;8526870;27;20480;-77
2022/04/20 09:50:30;;;;;;;25.17;14.65;;;;;;;6.36;88.47;98980.28;8531553;27;20511;-75
2022/04/20 09:54:31;;;;;;;16.58;12.30;;;;;;;6.44;88.69;98980.75;8511484;27;20043;-76
2022/04/20 09:58:34;;;;;;;14.05;8.55;;;;;;;6.53;88.63;98976.34;8495199;27;20042;-75
2022/04/20 10:02:44;;;;;;;12.10;8.65;;;;;;;6.50;88.36;98979.63;8530875;27;20126;-75
2022/04/20 10:06:46;;;;;;;12.35;7.28;;;;;;;6.52;88.08;98977.44;8530940;27;20090;-76
2022/04/20 10:10:48;;;;;;;10.10;7.28;;;;;;;6.55;88.35;98971.50;8529910;27;20054;-77
2022/04/20 10:19:14;;;;;;;9.30;6.32;;;;;;;6.35;88.53;98975.97;8530099;27;20043;-74
2022/04/20 10:23:19;;;;;;;11.82;6.90;;;;;;;6.38;88.86;98965.78;8476662;27;20042;-74
2022/04/20 10:27:58;;;;;;;7.70;4.60;;;;;;;6.34;88.77;98966.34;8529774;27;20046;-74
2022/04/20 10:32:07;;;;;;;9.23;5.10;;;;;;;6.43;88.45;98963.03;8356704;28;20053;-74
2022/04/20 10:36:09;;;;;;;9.32;5.22;;;;;;;6.50;88.14;98952.78;8323833;28;20530;-74
2022/04/20 10:40:17;;;;;;;7.72;4.88;;;;;;;6.51;88.18;98949.00;8356632;28;20061;-75
2022/04/20 10:44:18;;;;;;;7.20;4.75;;;;;;;6.62;88.23;98953.16;8339916;28;20041;-74
2022/04/20 10:48:19;;;;;;;7.90;4.70;;;;;;;6.58;88.32;98957.50;8306984;28;20076;-74
2022/04/20 10:52:24;;;;;;;5.65;4.43;;;;;;;6.45;88.35;98955.53;8356145;28;20045;-73
2022/04/20 10:56:25;;;;;;;7.82;3.58;;;;;;;6.36;88.95;98953.44;8338854;28;20041;-73
2022/04/20 11:00:27;;;;;;;5.32;3.63;;;;;;;6.50;88.31;98947.41;8339493;28;20179;-73
2022/04/20 11:04:37;;;;;;;22.10;11.75;;;;;;;6.60;88.10;98947.31;8355452;28;20045;-73
2022/04/20 11:08:38;;;;;;;15.73;9.43;;;;;;;6.73;87.71;98946.59;8380986;28;20394;-73
2022/04/20 11:21:28;;;;;;;11.43;7.07;;;;;;;6.48;87.52;98938.84;8459799;28;20497;-73
2022/04/20 11:25:29;;;;;;;17.98;10.07;;;;;;;6.23;88.25;98938.06;8459236;28;20052;-73
2022/04/20 11:29:30;;;;;;;12.32;6.50;;;;;;;6.29;89.32;98934.22;8457688;28;20039;-73
2022/04/20 11:33:32;;;;;;;14.60;6.78;;;;;;;6.52;89.15;98934.50;8460223;28;20043;-73
2022/04/20 11:37:33;;;;;;;17.92;9.25;;;;;;;6.65;89.25;98928.47;8474233;27;20054;-73
2022/04/20 11:41:35;;;;;;;11.48;6.82;;;;;;;6.85;88.81;98922.81;8509564;27;20039;-73
2022/04/20 11:45:36;;;;;;;17.08;9.98;;;;;;;6.98;87.66;98927.47;8528131;27;20049;-73
2022/04/20 11:49:40;;;;;;;8.15;4.70;;;;;;;6.78;88.14;98922.38;8490769;27;20039;-72
2022/04/20 11:53:42;;;;;;;11.55;6.03;;;;;;;6.79;88.87;98930.16;8525182;27;20106;-73
2022/04/20 11:57:44;;;;;;;10.13;6.30;;;;;;;6.64;89.45;98926.84;8521475;27;20369;-73
2022/04/20 12:01:47;;;;;;;10.23;5.53;;;;;;;6.66;89.73;98922.78;8489054;27;20047;-73
2022/04/20 12:06:17;;;;;;;8.88;5.95;;;;;;;6.69;89.84;98924.91;8527655;27;20043;-72
2022/04/20 12:10:18;;;;;;;11.60;6.40;;;;;;;6.72;90.16;98934.25;8510495;27;20458;-73
2022/04/20 12:14:20;;;;;;;14.35;6.40;;;;;;;6.70;89.81;98923.03;8479108;27;20389;-73
2022/04/20 12:18:21;;;;;;;15.98;7.93;;;;;;;6.51;90.57;98911.44;8527319;27;20046;-72
2022/04/20 12:22:23;;;;;;;9.55;5.85;;;;;;;6.60;90.69;98920.47;8497184;27;20196;-73
2022/04/20 12:26:28;;;;;;;10.32;6.82;;;;;;;6.52;90.69;98918.41;8525922;27;20049;-73
2022/04/20 12:30:36;;;;;;;13.15;5.63;;;;;;;6.57;91.10;98926.38;8526559;27;20054;-73
2022/04/20 12:34:52;;;;;;;9.75;5.35;;;;;;;6.42;91.33;98923.88;8523809;27;20069;-73
2022/04/20 12:38:53;;;;;;;11.50;7.85;;;;;;;6.50;90.98;98931.31;8515390;27;20070;-74
2022/04/20 12:43:05;;;;;;;8.80;5.45;;;;;;;6.42;91.76;98929.25;8528727;27;20049;-72
2022/04/20 12:47:06;;;;;;;9.25;5.57;;;;;;;6.52;91.57;98923.78;8512970;27;20112;-72
2022/04/20 12:51:20;;;;;;;8.52;5.55;;;;;;;6.51;91.42;98932.91;8513837;27;20518;-72
2022/04/20 12:55:21;;;;;;;17.67;8.73;;;;;;;6.56;91.51;98935.53;8461872;27;20047;-73
2022/04/20 13:04:00;;;;;;;11.60;7.60;;;;;;;6.50;91.95;98931.31;8506674;27;20043;-73
2022/04/20 13:08:03;;;;;;;15.88;8.20;;;;;;;6.48;92.01;98928.13;8523616;27;20034;-73
2022/04/20 13:12:04;;;;;;;12.30;6.32;;;;;;;6.49;92.27;98929.72;8457607;27;20039;-72
2022/04/20 13:16:09;;;;;;;8.13;5.15;;;;;;;6.48;92.19;98933.47;8470902;27;20476;-73
2022/04/20 13:20:10;;;;;;;9.90;5.13;;;;;;;6.47;92.35;98926.50;8518147;27;20050;-73
2022/04/20 13:24:11;;;;;;;10.88;7.13;;;;;;;6.48;92.52;98920.06;8513963;27;20043;-73
2022/04/20 13:28:12;;;;;;;14.70;7.05;;;;;;;6.49;92.68;98919.00;8525055;27;20091;-73
2022/04/20 13:32:14;;;;;;;8.70;5.43;;;;;;;6.50;92.27;98931.31;8524806;27;20062;-73
2022/04/20 13:36:15;;;;;;;8.98;5.10;;;;;;;6.48;92.51;98936.16;8519241;27;20034;-73
2022/04/20 13:40:16;;;;;;;10.27;5.82;;;;;;;6.48;92.63;98938.84;8461161;27;20540;-73
2022/04/20 13:44:18;;;;;;;12.95;6.65;;;;;;;6.58;92.29;98934.16;8467242;27;20047;-73
2022/04/20 13:48:20;;;;;;;8.48;6.05;;;;;;;6.70;92.14;98925.72;8486423;27;20043;-73
2022/04/20 13:52:21;;;;;;;7.28;5.22;;;;;;;6.80;91.72;98930.94;8477579;27;20050;-73
2022/04/20 13:56:22;;;;;;;10.32;5.47;;;;;;;6.83;92.28;98933.03;8493766;27;20032;-74
2022/04/20 14:00:27;;;;;;;10.77;4.82;;;;;;;6.91;91.59;98927.03;8465004;27;20075;-72
2022/04/20 14:04:28;;;;;;;9.00;5.55;;;;;;;7.08;91.14;98938.09;8489570;27;20062;-73
2022/04/20 14:08:29;;;;;;;7.75;5.75;;;;;;;6.93;91.15;98935.59;8486652;27;20039;-73
2022/04/20 14:12:31;;;;;;;7.88;4.82;;;;;;;6.92;90.73;98934.00;8475248;27;20048;-73
2022/04/20 14:16:33;;;;;;;7.18;4.82;;;;;;;7.01;90.44;98936.84;8476340;27;20417;-72
2022/04/20 14:20:34;;;;;;;14.00;6.43;;;;;;;6.90;90.52;98933.50;8446225;27;20053;-72
2022/04/20 14:24:35;;;;;;;9.68;5.90;;;;;;;6.84;90.62;98931.16;8492144;27;20039;-73
2022/04/20 14:32:55;;;;;;;12.23;6.53;;;;;;;6.75;90.81;98923.75;8459306;27;20050;-73
2022/04/20 14:36:57;;;;;;;15.35;7.53;;;;;;;6.73;91.86;98919.75;8494244;27;20395;-72
2022/04/20 14:40:58;;;;;;;15.35;6.90;;;;;;;6.79;91.73;98923.97;8518051;27;20051;-73
2022/04/20 14:45:01;;;;;;;15.50;7.15;;;;;;;6.84;91.30;98931.97;8524333;27;20066;-74
2022/04/20 14:49:03;;;;;;;15.00;7.53;;;;;;;6.74;91.49;98929.41;8518637;27;20043;-73
2022/04/20 14:53:04;;;;;;;12.77;6.80;;;;;;;6.62;91.89;98945.09;8512831;27;20067;-73
2022/04/20 14:57:07;;;;;;;12.27;7.28;;;;;;;6.61;92.07;98938.94;8504664;27;20043;-73
2022/04/20 15:01:08;;;;;;;13.40;6.85;;;;;;;6.74;91.95;98932.09;8506916;27;20069;-73
2022/04/20 15:05:09;;;;;;;16.15;10.60;;;;;;;6.72;91.93;98950.34;8514192;27;20043;-73
2022/04/20 15:09:10;;;;;;;12.30;6.65;;;;;;;6.64;92.46;98953.69;8513696;27;20510;-73
2022/04/20 15:13:11;;;;;;;9.75;6.38;;;;;;;6.54;93.30;98943.88;8460627;27;20055;-73
2022/04/20 15:17:12;;;;;;;13.38;8.60;;;;;;;6.46;93.91;98951.72;8459058;27;20318;-73
2022/04/20 15:21:13;;;;;;;12.85;6.68;;;;;;;6.46;93.97;98941.00;8472074;27;20662;-73
2022/04/20 15:25:14;;;;;;;13.43;7.30;;;;;;;6.57;93.72;98939.81;8497126;27;20130;-73
2022/04/20 15:29:16;;;;;;;14.60;6.90;;;;;;;6.55;93.98;98945.47;8468427;27;20138;-74
2022/04/20 15:33:17;;;;;;;19.88;11.13;;;;;;;6.54;94.17;98937.72;8510665;27;20389;-74
2022/04/20 15:37:18;;;;;;;15.50;9.10;;;;;;;6.55;93.79;98936.63;8522533;27;20050;-74
2022/04/20 15:41:20;;;;;;;13.60;7.38;;;;;;;6.49;94.36;98940.44;8502647;27;20051;-73
2022/04/20 15:45:21;;;;;;;13.40;6.97;;;;;;;6.48;94.45;98934.28;8480195;27;20047;-74
2022/04/20 15:49:23;;;;;;;22.67;8.93;;;;;;;6.48;94.40;98933.47;8462043;27;20075;-75
2022/04/20 15:53:24;;;;;;;15.00;9.35;;;;;;;6.48;94.80;98928.91;8464081;27;20082;-75
2022/04/20 16:01:58;;;;;;;11.88;7.18;;;;;;;6.47;94.84;98948.78;8519251;27;20088;-75
2022/04/20 16:05:59;;;;;;;13.90;7.00;;;;;;;6.48;94.79;98944.22;8487639;27;20095;-74
2022/04/20 16:10:02;;;;;;;19.05;8.00;;;;;;;6.40;95.32;98952.91;8517797;27;20127;-74
2022/04/20 16:14:03;;;;;;;10.68;6.60;;;;;;;6.36;95.40;98942.72;8512943;27;20054;-74
2022/04/20 16:18:04;;;;;;;17.77;11.88;;;;;;;6.39;95.56;98945.94;8532127;27;20038;-74
2022/04/20 16:22:06;;;;;;;13.73;6.68;;;;;;;6.37;95.51;98943.53;8515580;27;20038;-75
2022/04/20 16:26:07;;;;;;;13.02;7.68;;;;;;;6.33;95.75;98954.03;8518850;27;20050;-74
2022/04/20 16:30:28;;;;;;;13.10;7.20;;;;;;;6.26;96.28;98948.19;8525592;27;20125;-73
2022/04/20 16:34:29;;;;;;;13.38;6.85;;;;;;;6.26;96.46;98953.56;8432609;27;20567;-73
2022/04/20 16:38:31;;;;;;;12.20;7.60;;;;;;;6.23;96.78;98954.13;8389751;27;20430;-72
2022/04/20 16:42:34;;;;;;;16.02;7.57;;;;;;;6.24;96.80;98950.34;8438456;27;20048;-72
2022/04/20 16:46:35;;;;;;;14.52;7.97;;;;;;;6.18;97.76;98945.34;8389897;28;20167;-73
2022/04/20 16:50:36;;;;;;;24.95;12.32;;;;;;;6.16;98.14;98937.56;8436336;27;20059;-73
2022/04/20 16:54:38;;;;;;;13.68;8.55;;;;;;;6.17;98.46;98933.81;8405875;27;20095;-72
2022/04/20 16:58:39;;;;;;;17.58;8.65;;;;;;;6.12;99.04;98931.19;8438051;28;20043;-73
2022/04/20 17:02:42;;;;;;;12.10;8.23;;;;;;;6.05;99.47;98936.06;8431869;28;20109;-72
2022/04/20 17:06:43;;;;;;;16.35;10.95;;;;;;;6.03;99.48;98938.22;8459596;27;20514;-72
2022/04/20 17:10:45;;;;;;;17.77;10.75;;;;;;;6.03;99.32;98938.22;8523534;27;20078;-72
2022/04/20 17:14:46;;;;;;;17.02;9.65;;;;;;;6.05;99.95;98941.44;8514544;27;20060;-73
2022/04/20 17:18:47;;;;;;;14.85;9.38;;;;;;;6.02;99.83;98942.00;8507640;27;20043;-73
2022/04/20 17:27:10;;;;;;;22.10;10.00;;;;;;;5.99;100.00;98953.28;8500376;27;20110;-73
2022/04/20 17:31:11;;;;;;;22.75;12.45;;;;;;;5.96;100.00;98956.53;8511949;27;20035;-74
2022/04/20 17:39:31;;;;;;;;;;;;;;;5.94;100.00;98945.28;8443670;27;20044;-72
2022/04/20 17:43:33;;;;;;;32.03;15.35;;;;;;;5.90;100.00;98947.75;8442378;28;20020;-72
2022/04/20 17:47:34;;;;;;;23.85;13.25;;;;;;;5.91;100.00;98945.88;8450635;27;20051;-72
2022/04/20 17:51:37;;;;;;;24.48;15.15;;;;;;;5.86;100.00;98953.91;8391055;28;20051;-73
2022/04/20 17:55:38;;;;;;;46.15;24.58;;;;;;;5.84;100.00;98950.72;8411115;27;20043;-72
2022/04/20 17:59:39;;;;;;;26.40;14.32;;;;;;;5.85;100.00;98963.84;8469671;27;20043;-72
2022/04/20 18:03:41;;;;;;;48.58;27.63;;;;;;;5.90;100.00;98960.34;8414477;27;20456;-72
2022/04/20 18:07:43;;;;;;;22.70;13.00;;;;;;;5.86;100.00;98959.28;8506649;27;20504;-72
2022/04/20 18:11:44;;;;;;;23.25;11.93;;;;;;;5.84;100.00;98961.44;8514220;27;20039;-73
2022/04/20 18:15:45;;;;;;;23.50;13.25;;;;;;;5.83;100.00;98970.53;8515715;27;20054;-73
2022/04/20 18:19:46;;;;;;;19.73;12.00;;;;;;;5.83;100.00;98962.50;8481595;27;20377;-74
2022/04/20 18:23:48;;;;;;;19.80;10.00;;;;;;;5.83;100.00;98975.91;8484910;27;20043;-73
2022/04/20 18:27:50;;;;;;;16.05;9.70;;;;;;;5.87;100.00;98972.41;8476010;27;20074;-73
2022/04/20 18:31:51;;;;;;;16.98;10.98;;;;;;;5.75;100.00;98968.47;8480450;27;20095;-73
2022/04/20 18:35:53;;;;;;;17.65;10.50;;;;;;;5.75;100.00;98965.81;8524724;27;20050;-73
2022/04/20 18:39:55;;;;;;;15.52;9.70;;;;;;;5.72;100.00;98964.47;8515004;27;20518;-74
2022/04/20 18:44:00;;;;;;;18.58;11.27;;;;;;;5.75;100.00;98963.13;8459110;27;20048;-73
2022/04/20 18:48:02;;;;;;;24.17;12.45;;;;;;;5.74;100.00;98956.97;8447438;27;20468;-73
2022/04/20 18:52:04;;;;;;;24.33;15.05;;;;;;;5.76;100.00;98951.34;8474664;27;20042;-73
2022/04/20 19:00:33;;;;;;;33.13;16.85;;;;;;;5.61;100.00;98951.44;8454607;27;20425;-73
2022/04/20 19:04:51;;;;;;;33.03;18.10;;;;;;;5.56;100.00;98943.44;8383007;27;20047;-74
2022/04/20 19:08:52;;;;;;;38.08;19.85;;;;;;;5.59;100.00;98942.88;8459935;27;20052;-73
2022/04/20 19:12:55;;;;;;;37.97;19.88;;;;;;;5.61;100.00;98940.72;8437249;27;20125;-73
2022/04/20 19:16:58;;;;;;;35.00;19.17;;;;;;;5.64;100.00;98940.16;8461257;27;20562;-73
2022/04/20 19:20:59;;;;;;;42.13;20.73;;;;;;;5.61;100.00;98935.34;8505239;27;20055;-73
2022/04/20 19:25:03;;;;;;;32.90;17.75;;;;;;;5.61;100.00;98930.00;8517544;27;20035;-73
2022/04/20 19:29:04;;;;;;;34.25;20.35;;;;;;;5.59;100.00;98926.81;8510247;27;20544;-73
2022/04/20 19:33:10;;;;;;;33.55;17.00;;;;;;;5.50;100.00;98918.56;8516300;27;20088;-74
2022/04/20 19:37:13;;;;;;;37.33;19.98;;;;;;;5.55;100.00;98920.44;8497570;27;20555;-74
2022/04/20 19:41:14;;;;;;;32.90;19.80;;;;;;;5.54;100.00;98914.25;8479993;27;20397;-73
2022/04/20 19:45:16;;;;;;;31.60;18.00;;;;;;;5.52;100.00;98917.22;8507419;27;20073;-73
2022/04/20 19:49:17;;;;;;;36.78;20.88;;;;;;;5.49;100.00;98923.16;8490346;27;20051;-73
2022/04/20 19:53:19;;;;;;;26.73;16.80;;;;;;;5.49;100.00;98904.41;8527391;27;20046;-74
2022/04/20 19:57:20;;;;;;;30.50;18.17;;;;;;;5.57;100.00;98912.88;8523451;27;20173;-74